createdAt,value
2018-06-25T00:01:17.736Z,76.24
2018-06-25T00:03:48.152Z,76.41
2018-06-25T00:06:18.843Z,76.78
2018-06-25T00:08:54.335Z,77.78
2018-06-25T00:11:42.553Z,77.59
2018-06-25T00:14:17.635Z,76.59
2018-06-25T00:16:48.251Z,76.10
2018-06-25T00:19:18.508Z,76.14
2018-06-25T00:21:49.657Z,76.31
2018-06-25T00:24:26.478Z,76.39
2018-06-25T00:27:00.298Z,77.52
2018-06-25T00:29:30.817Z,77.69
2018-06-25T00:32:01.374Z,77.74
2018-06-25T00:34:59.978Z,76.06
2018-06-25T00:37:32.052Z,76.26
2018-06-25T00:40:02.408Z,77.13
2018-06-25T00:42:33.181Z,77.06
2018-06-25T00:45:04.147Z,78.16
2018-06-25T00:47:34.677Z,77.18
2018-06-25T00:50:05.455Z,76.23
2018-06-25T00:52:36.365Z,76.20
2018-06-25T00:57:54.995Z,75.51
2018-06-25T01:00:25.448Z,76.47
2018-06-25T01:02:57.677Z,77.30
2018-06-25T01:05:28.160Z,77.55
2018-06-25T01:07:58.555Z,77.49
2018-06-25T01:10:28.990Z,77.62
2018-06-25T01:12:59.710Z,76.71
2018-06-25T01:18:36.215Z,79.61
2018-06-25T01:21:06.628Z,80.94
2018-06-25T01:23:41.217Z,81.20
2018-06-25T01:26:11.715Z,81.53
2018-06-25T01:28:42.097Z,82.77
2018-06-25T01:31:14.248Z,81.59
2018-06-25T01:38:07.783Z,81.68
2018-06-25T01:40:40.453Z,81.89
2018-06-25T01:43:11.371Z,81.72
2018-06-25T01:45:41.980Z,81.91
2018-06-25T01:48:12.748Z,82.56
2018-06-25T01:50:43.238Z,82.32
2018-06-25T01:53:15.110Z,82.71
2018-06-25T01:55:45.615Z,83.90
2018-06-25T01:58:16.099Z,82.67
2018-06-25T02:00:48.965Z,83.00
2018-06-25T02:03:21.128Z,81.42
2018-06-25T02:05:51.635Z,79.79
2018-06-25T02:08:22.933Z,81.07
2018-06-25T02:10:55.528Z,81.56
2018-06-25T02:13:26.356Z,82.18
2018-06-25T02:15:57.124Z,83.04
2018-06-25T02:18:27.748Z,82.50
2018-06-25T02:20:58.155Z,81.78
2018-06-25T02:23:46.086Z,81.71
2018-06-25T02:26:40.643Z,79.22
2018-06-25T02:29:11.478Z,80.22
2018-06-25T02:31:41.777Z,80.86
2018-06-25T02:34:13.094Z,82.03
2018-06-25T02:37:00.721Z,81.89
2018-06-25T02:43:08.536Z,81.86
2018-06-25T02:45:45.341Z,81.77
2018-06-25T02:48:15.620Z,81.79
2018-06-25T02:50:46.738Z,82.75
2018-06-25T02:53:25.191Z,81.95
2018-06-25T02:55:56.161Z,81.74
2018-06-25T02:58:26.508Z,81.44
2018-06-25T03:01:00.194Z,80.48
2018-06-25T03:03:30.551Z,80.42
2018-06-25T03:06:01.172Z,79.99
2018-06-25T03:08:31.523Z,80.94
2018-06-25T03:11:02.835Z,80.54
2018-06-25T03:13:33.044Z,81.53
2018-06-25T03:16:03.473Z,81.53
2018-06-25T03:18:33.778Z,82.56
2018-06-25T03:21:07.288Z,82.86
2018-06-25T03:23:37.531Z,83.68
2018-06-25T03:26:08.315Z,83.25
2018-06-25T03:28:47.586Z,83.54
2018-06-25T03:31:18.615Z,84.13
2018-06-25T03:33:49.368Z,84.25
2018-06-25T03:36:20.495Z,84.55
2018-06-25T03:38:50.862Z,84.29
2018-06-25T03:41:21.814Z,83.74
2018-06-25T03:43:52.074Z,83.38
2018-06-25T03:46:22.981Z,83.75
2018-06-25T03:48:53.382Z,82.09
2018-06-25T03:51:28.030Z,82.53
2018-06-25T03:53:58.507Z,83.32
2018-06-25T03:56:29.396Z,82.67
2018-06-25T03:59:00.009Z,81.92
2018-06-25T04:01:30.351Z,82.71
2018-06-25T04:04:02.386Z,83.55
2018-06-25T04:06:32.736Z,84.06
2018-06-25T04:09:03.861Z,83.56
2018-06-25T04:11:34.851Z,84.43
2018-06-25T04:14:05.558Z,84.68
2018-06-25T04:16:36.451Z,84.73
2018-06-25T04:19:06.918Z,84.30
2018-06-25T04:21:38.319Z,83.64
2018-06-25T04:24:13.908Z,83.86
2018-06-25T04:26:44.753Z,83.64
2018-06-25T04:29:20.003Z,82.95
2018-06-25T04:31:52.051Z,82.24
2018-06-25T04:34:22.928Z,81.08
2018-06-25T04:36:53.623Z,80.91
2018-06-25T04:39:24.498Z,80.45
2018-06-25T04:41:56.109Z,80.57
2018-06-25T04:44:26.868Z,78.72
2018-06-25T04:46:57.441Z,78.87
2018-06-25T04:49:28.046Z,79.12
2018-06-25T04:51:58.893Z,79.05
2018-06-25T04:54:32.498Z,80.33
2018-06-25T04:57:17.218Z,81.23
2018-06-25T04:59:49.510Z,82.58
2018-06-25T05:02:22.234Z,82.22
2018-06-25T05:04:54.710Z,78.26
2018-06-25T05:07:26.109Z,75.93
2018-06-25T05:09:56.473Z,75.29
2018-06-25T05:12:26.803Z,74.43
2018-06-25T05:14:57.363Z,72.15
2018-06-25T05:23:32.505Z,65.82
2018-06-25T05:29:06.931Z,64.25
2018-06-25T05:31:39.350Z,63.51
2018-06-25T05:34:09.753Z,65.14
2018-06-25T05:36:41.141Z,63.64
2018-06-25T05:39:14.315Z,64.58
2018-06-25T05:41:44.670Z,66.98
2018-06-25T05:44:14.980Z,65.54
2018-06-25T05:46:45.468Z,66.50
2018-06-25T05:49:15.665Z,67.01
2018-06-25T05:51:46.115Z,66.70
2018-06-25T05:54:16.630Z,67.47
2018-06-25T05:56:47.038Z,68.48
2018-06-25T05:59:18.111Z,66.98
2018-06-25T06:01:48.650Z,65.33
2018-06-25T06:04:18.930Z,62.56
2018-06-25T06:06:50.498Z,62.80
2018-06-25T06:09:20.933Z,61.45
2018-06-25T06:11:54.913Z,58.23
2018-06-25T06:14:26.298Z,58.05
2018-06-25T06:16:56.650Z,57.21
2018-06-25T06:19:26.938Z,58.20
2018-06-25T06:21:57.335Z,61.33
2018-06-25T06:24:28.281Z,60.06
2018-06-25T06:26:58.856Z,57.94
2018-06-25T06:29:29.088Z,58.19
2018-06-25T06:32:00.152Z,54.63
2018-06-25T06:34:30.433Z,54.54
2018-06-25T06:37:00.924Z,52.60
2018-06-25T06:39:31.117Z,52.67
2018-06-25T06:42:01.350Z,52.98
2018-06-25T06:44:31.587Z,50.58
2018-06-25T06:47:01.854Z,50.28
2018-06-25T06:49:34.106Z,50.40
2018-06-25T06:52:04.251Z,48.02
2018-06-25T06:54:34.838Z,46.37
2018-06-25T06:57:05.653Z,42.88
2018-06-25T06:59:36.154Z,45.96
2018-06-25T07:02:06.776Z,42.74
2018-06-25T07:04:37.369Z,43.03
2018-06-25T07:07:08.714Z,43.83
2018-06-25T07:09:39.156Z,42.36
2018-06-25T07:12:09.583Z,42.09
2018-06-25T07:14:39.793Z,44.26
2018-06-25T07:17:10.306Z,46.35
2018-06-25T07:19:40.710Z,46.29
2018-06-25T07:22:11.786Z,45.87
2018-06-25T07:24:42.062Z,44.78
2018-06-25T07:27:12.501Z,43.77
2018-06-25T07:29:42.768Z,42.81
2018-06-25T07:32:12.979Z,41.97
2018-06-25T07:34:43.305Z,40.17
2018-06-25T07:37:13.486Z,39.44
2018-06-25T07:39:43.756Z,39.60
2018-06-25T07:42:14.261Z,40.37
2018-06-25T07:44:44.551Z,40.49
2018-06-25T07:47:14.974Z,39.28
2018-06-25T07:49:45.247Z,39.01
2018-06-25T07:52:15.569Z,41.00
2018-06-25T07:57:43.904Z,37.50
2018-06-25T08:00:22.300Z,37.75
2018-06-25T08:03:04.644Z,39.30
2018-06-25T08:05:34.890Z,42.16
2018-06-25T08:08:05.361Z,44.44
2018-06-25T08:10:35.769Z,43.09
2018-06-25T08:13:06.056Z,44.11
2018-06-25T08:20:10.051Z,40.73
2018-06-25T08:22:46.196Z,40.22
2018-06-25T08:25:22.856Z,40.22
2018-06-25T08:27:54.768Z,40.57
2018-06-25T08:30:29.047Z,38.83
2018-06-25T08:32:58.861Z,39.42
2018-06-25T08:35:37.262Z,38.49
2018-06-25T08:38:08.623Z,37.96
2018-06-25T08:40:38.808Z,37.63
2018-06-25T08:43:09.480Z,39.31
2018-06-25T08:45:41.163Z,39.95
2018-06-25T08:51:19.106Z,36.92
2018-06-25T08:53:49.431Z,37.05
2018-06-25T08:56:20.019Z,36.43
2018-06-25T08:58:50.526Z,38.92
2018-06-25T09:01:30.229Z,39.24
2018-06-25T09:04:01.143Z,35.71
2018-06-25T09:06:31.766Z,32.36
2018-06-25T09:09:02.281Z,34.95
2018-06-25T09:11:32.931Z,36.94
2018-06-25T09:14:03.704Z,34.93
2018-06-25T09:16:34.009Z,34.26
2018-06-25T09:19:06.126Z,35.04
2018-06-25T09:21:36.874Z,34.37
2018-06-25T09:24:07.412Z,34.52
2018-06-25T09:26:40.130Z,35.16
2018-06-25T09:29:11.624Z,34.42
2018-06-25T09:31:42.936Z,35.03
2018-06-25T09:34:18.445Z,35.22
2018-06-25T09:36:48.823Z,33.08
2018-06-25T09:39:19.211Z,31.42
2018-06-25T09:41:49.573Z,32.38
2018-06-25T09:44:19.866Z,35.55
2018-06-25T09:46:50.641Z,35.49
2018-06-25T09:49:21.401Z,34.66
2018-06-25T09:51:52.030Z,32.31
2018-06-25T09:54:22.599Z,32.58
2018-06-25T09:56:53.314Z,33.95
2018-06-25T09:59:23.764Z,33.72
2018-06-25T10:01:54.730Z,32.74
2018-06-25T10:04:25.097Z,32.34
2018-06-25T10:06:55.554Z,33.75
2018-06-25T10:09:25.939Z,33.59
2018-06-25T10:11:56.621Z,35.08
2018-06-25T10:14:26.841Z,34.99
2018-06-25T10:16:57.181Z,32.30
2018-06-25T10:19:27.398Z,33.39
2018-06-25T10:21:57.704Z,33.84
2018-06-25T10:24:27.951Z,33.15
2018-06-25T10:26:58.375Z,33.81
2018-06-25T10:29:29.731Z,33.59
2018-06-25T10:32:00.364Z,32.51
2018-06-25T10:34:30.969Z,32.64
2018-06-25T10:37:01.420Z,34.51
2018-06-25T10:39:31.716Z,35.51
2018-06-25T10:42:02.031Z,37.15
2018-06-25T10:44:32.487Z,37.69
2018-06-25T10:47:02.809Z,33.89
2018-06-25T10:49:33.412Z,31.07
2018-06-25T10:52:04.624Z,30.52
2018-06-25T10:54:35.194Z,29.66
2018-06-25T10:57:05.627Z,29.35
2018-06-25T10:59:36.611Z,32.64
2018-06-25T11:02:07.823Z,35.90
2018-06-25T11:04:39.013Z,38.77
2018-06-25T11:07:09.487Z,40.61
2018-06-25T11:09:39.723Z,40.66
2018-06-25T11:12:09.943Z,40.23
2018-06-25T11:14:40.927Z,40.28
2018-06-25T11:17:11.304Z,40.35
2018-06-25T11:19:41.987Z,36.68
2018-06-25T11:22:12.681Z,34.60
2018-06-25T11:24:43.752Z,34.47
2018-06-25T11:27:14.926Z,33.91
2018-06-25T11:29:45.541Z,30.14
2018-06-25T11:32:15.789Z,31.43
2018-06-25T11:34:47.100Z,30.65
2018-06-25T11:37:18.301Z,30.88
2018-06-25T11:39:48.606Z,31.98
2018-06-25T11:42:20.157Z,34.11
2018-06-25T11:44:51.219Z,34.72
2018-06-25T11:47:21.924Z,33.78
2018-06-25T11:49:53.242Z,35.23
2018-06-25T11:52:23.986Z,33.77
2018-06-25T11:54:54.785Z,31.77
2018-06-25T11:57:25.099Z,30.72
2018-06-25T11:59:55.660Z,30.70
2018-06-25T12:02:26.261Z,30.20
2018-06-25T12:04:56.753Z,30.74
2018-06-25T12:07:27.352Z,30.94
2018-06-25T12:09:59.083Z,31.52
2018-06-25T12:12:29.892Z,31.24
2018-06-25T12:15:00.517Z,31.25
2018-06-25T12:17:31.059Z,32.83
2018-06-25T12:20:02.021Z,33.18
2018-06-25T12:22:33.036Z,36.81
2018-06-25T12:25:04.281Z,38.93
2018-06-25T12:27:35.039Z,43.76
2018-06-25T12:30:06.959Z,45.04
2018-06-25T12:32:38.667Z,45.21
2018-06-25T12:35:09.824Z,46.42
2018-06-25T12:37:41.044Z,47.10
2018-06-25T12:40:29.577Z,47.23
2018-06-25T12:43:00.002Z,47.39
2018-06-25T12:45:30.733Z,48.48
2018-06-25T12:48:02.438Z,49.44
2018-06-25T12:50:43.477Z,49.64
2018-06-25T12:53:14.221Z,50.67
2018-06-25T12:55:45.115Z,50.16
2018-06-25T12:58:16.126Z,50.98
2018-06-25T13:10:04.981Z,52.73
2018-06-25T13:12:35.509Z,51.97
2018-06-25T13:15:15.127Z,52.84
2018-06-25T13:17:50.971Z,53.04
2018-06-25T13:20:24.165Z,54.50
2018-06-25T13:22:57.350Z,56.91
2018-06-25T13:25:52.802Z,62.46
2018-06-25T13:28:25.697Z,69.44
2018-06-25T13:30:57.127Z,73.49
2018-06-25T13:33:28.023Z,73.29
2018-06-25T13:36:05.681Z,77.73
2018-06-25T13:38:36.470Z,79.32
2018-06-25T13:41:07.166Z,86.32
2018-06-25T13:43:37.999Z,87.90
2018-06-25T13:46:16.056Z,89.20
2018-06-25T13:48:46.446Z,90.76
2018-06-25T13:51:16.847Z,94.63
2018-06-25T13:53:47.199Z,96.38
2018-06-25T13:56:18.607Z,97.78
2018-06-25T13:58:49.836Z,97.88
2018-06-25T14:01:22.273Z,98.21
2018-06-25T14:03:52.461Z,97.60
2018-06-25T14:06:23.238Z,98.26
2018-06-25T14:09:00.928Z,99.71
2018-06-25T14:11:38.657Z,99.20
2018-06-25T14:14:10.039Z,99.63
2018-06-25T14:16:40.565Z,99.13
2018-06-25T14:19:11.032Z,100.00
2018-06-25T14:21:41.669Z,99.34
2018-06-25T14:24:17.268Z,98.83
2018-06-25T14:26:47.806Z,97.88
2018-06-25T14:29:23.280Z,98.52
2018-06-25T14:31:58.045Z,99.27
2018-06-25T14:34:29.994Z,95.94
2018-06-25T14:37:01.373Z,98.11
2018-06-25T14:39:31.809Z,99.14
2018-06-25T14:42:03.130Z,98.71
2018-06-25T14:44:33.468Z,98.54
2018-06-25T14:47:18.686Z,100.00
2018-06-25T14:49:49.381Z,100.00
2018-06-25T14:52:21.604Z,100.00
2018-06-25T14:54:51.869Z,99.38
2018-06-25T14:57:22.594Z,99.89
2018-06-25T14:59:54.597Z,100.00
2018-06-25T15:02:25.297Z,99.52
2018-06-25T15:05:24.834Z,98.19
2018-06-25T15:08:02.866Z,98.57
2018-06-25T15:10:33.395Z,98.70
2018-06-25T15:34:01.064Z,98.68
2018-06-25T15:36:32.161Z,96.60
2018-06-25T15:39:04.049Z,97.38
2018-06-25T15:41:34.593Z,97.70
2018-06-25T15:44:05.924Z,97.98
2018-06-25T15:46:36.606Z,97.43
2018-06-25T15:49:08.314Z,98.99
2018-06-25T15:51:38.644Z,96.44
2018-06-25T15:54:09.571Z,97.04
2018-06-25T15:56:40.038Z,100.00
2018-06-25T15:59:10.954Z,100.00
2018-06-25T16:01:41.474Z,100.00
2018-06-25T16:04:12.100Z,100.00
2018-06-25T16:06:42.757Z,100.00
2018-06-25T16:09:13.509Z,100.00
2018-06-25T16:11:44.777Z,100.00
2018-06-25T16:14:15.388Z,100.00
2018-06-25T16:16:45.877Z,97.82
2018-06-25T16:19:16.539Z,99.62
2018-06-25T16:21:47.006Z,96.60
2018-06-25T16:24:17.724Z,97.59
2018-06-25T16:26:48.161Z,95.22
2018-06-25T16:29:41.942Z,96.24
2018-06-25T16:32:13.514Z,96.50
2018-06-25T16:34:44.206Z,94.51
2018-06-25T16:37:14.586Z,96.71
2018-06-25T16:39:45.396Z,94.85
2018-06-25T16:42:17.337Z,96.25
2018-06-25T16:44:48.444Z,96.31
2018-06-25T16:47:19.109Z,97.23
2018-06-25T16:49:49.807Z,98.60
2018-06-25T16:52:20.494Z,96.46
2018-06-25T16:54:51.291Z,90.44
2018-06-25T16:57:21.843Z,93.72
2018-06-25T16:59:52.479Z,91.61
2018-06-25T17:02:22.990Z,91.82
2018-06-25T17:05:13.866Z,86.10
2018-06-25T17:07:49.069Z,87.90
2018-06-25T17:10:24.890Z,87.32
2018-06-25T17:12:56.455Z,83.97
2018-06-25T17:15:27.321Z,85.06
2018-06-25T17:17:58.054Z,86.27
2018-06-25T17:20:29.285Z,87.22
2018-06-25T17:22:59.954Z,89.25
2018-06-25T17:25:31.504Z,89.78
2018-06-25T17:28:02.431Z,90.41
2018-06-25T17:30:33.284Z,92.32
2018-06-25T17:33:03.725Z,94.08
2018-06-25T17:35:34.306Z,94.96
2018-06-25T17:38:04.812Z,95.67
2018-06-25T17:40:36.406Z,95.47
2018-06-25T17:43:07.028Z,96.11
2018-06-25T17:45:37.699Z,95.59
2018-06-25T17:48:38.454Z,96.76
2018-06-25T17:51:09.362Z,95.52
2018-06-25T17:53:39.717Z,95.39
2018-06-25T17:56:10.251Z,96.23
2018-06-25T17:58:40.577Z,96.27
2018-06-25T18:01:10.912Z,95.25
2018-06-25T18:03:41.489Z,95.58
2018-06-25T18:06:12.939Z,94.55
2018-06-25T18:08:43.739Z,94.83
2018-06-25T18:11:13.976Z,94.86
2018-06-25T18:13:47.465Z,94.92
2018-06-25T18:16:18.534Z,93.04
2018-06-25T18:18:49.974Z,93.58
2018-06-25T18:21:20.378Z,92.57
2018-06-25T18:23:50.893Z,91.75
2018-06-25T18:26:21.782Z,92.58
2018-06-25T18:28:55.053Z,90.96
2018-06-25T18:31:27.694Z,89.32
2018-06-25T18:33:58.320Z,87.46
2018-06-25T18:36:28.752Z,85.64
2018-06-25T18:38:59.363Z,84.03
2018-06-25T18:41:29.763Z,84.68
2018-06-25T18:44:00.203Z,84.54
2018-06-25T18:46:30.464Z,84.60
2018-06-25T18:49:00.743Z,83.76
2018-06-25T18:51:31.470Z,81.90
2018-06-25T18:54:02.091Z,82.18
2018-06-25T18:56:33.150Z,81.44
2018-06-25T18:59:04.028Z,80.74
2018-06-25T19:01:35.571Z,77.26
2018-06-25T19:04:06.216Z,79.77
2018-06-25T19:06:38.162Z,77.69
2018-06-25T19:09:10.949Z,78.85
2018-06-25T19:11:41.654Z,77.45
2018-06-25T19:14:12.046Z,76.94
2018-06-25T19:16:43.021Z,77.27
2018-06-25T19:19:13.514Z,78.21
2018-06-25T19:21:44.919Z,76.84
2018-06-25T19:24:15.243Z,78.86
2018-06-25T19:26:46.244Z,77.80
2018-06-25T19:29:17.052Z,77.82
2018-06-25T19:31:48.216Z,78.38
2018-06-25T19:34:29.854Z,77.13
2018-06-25T19:37:01.259Z,76.43
2018-06-25T19:39:31.935Z,76.08
2018-06-25T19:42:03.201Z,77.19
2018-06-25T19:44:34.174Z,76.43
2018-06-25T19:47:04.843Z,77.14
2018-06-25T19:49:36.614Z,77.32
2018-06-25T19:52:07.544Z,77.87
2018-06-25T19:54:38.971Z,76.90
2018-06-25T19:57:10.068Z,76.17
2018-06-25T19:59:40.681Z,76.93
2018-06-25T20:02:11.713Z,77.05
2018-06-25T20:04:42.536Z,78.69
2018-06-25T20:07:13.556Z,79.28
2018-06-25T20:09:44.166Z,78.47
2018-06-25T20:12:17.636Z,79.24
2018-06-25T20:14:48.534Z,79.08
2018-06-25T20:17:20.082Z,79.67
2018-06-25T20:19:50.768Z,80.53
2018-06-25T20:22:24.570Z,78.36
2018-06-25T20:24:57.156Z,79.38
2018-06-25T20:27:29.641Z,77.53
2018-06-25T20:30:00.224Z,77.57
2018-06-25T20:32:31.552Z,77.27
2018-06-25T20:35:02.369Z,78.12
2018-06-25T20:37:33.549Z,78.70
2018-06-25T20:40:16.104Z,80.00
2018-06-25T20:42:51.736Z,78.95
2018-06-25T20:45:25.851Z,78.51
2018-06-25T20:47:57.049Z,78.32
2018-06-25T20:50:27.432Z,78.71
2018-06-25T20:52:58.674Z,78.37
2018-06-25T20:55:29.795Z,78.10
2018-06-25T20:58:01.339Z,79.05
2018-06-25T21:00:33.622Z,80.04
2018-06-25T21:03:06.231Z,80.70
2018-06-25T21:05:36.846Z,80.91
2018-06-25T21:08:08.897Z,81.41
2018-06-25T21:10:40.867Z,81.55
2018-06-25T21:13:11.997Z,81.72
2018-06-25T21:15:44.595Z,80.54
2018-06-25T21:18:17.757Z,80.10
2018-06-25T21:20:49.126Z,78.76
2018-06-25T21:23:20.540Z,79.30
2018-06-25T21:25:51.121Z,80.11
2018-06-25T21:28:23.680Z,79.52
2018-06-25T21:33:55.420Z,81.27
2018-06-25T21:36:26.738Z,80.48
2018-06-25T21:38:58.738Z,80.08
2018-06-25T21:41:29.892Z,81.87
2018-06-25T21:44:00.836Z,83.20
2018-06-25T21:46:32.188Z,83.06
2018-06-25T21:49:03.568Z,82.87
2018-06-25T21:51:34.190Z,83.30
2018-06-25T21:54:05.344Z,83.18
2018-06-25T21:56:35.913Z,83.89
2018-06-25T21:59:07.426Z,84.67
2018-06-25T22:01:38.834Z,84.95
2018-06-25T22:04:09.866Z,84.72
2018-06-25T22:06:40.391Z,85.62
2018-06-25T22:09:10.890Z,85.39
2018-06-25T22:11:41.184Z,87.08
2018-06-25T22:14:11.674Z,85.97
2018-06-25T22:23:07.883Z,87.79
2018-06-25T22:25:38.982Z,88.47
2018-06-25T22:28:09.900Z,89.84
2018-06-25T22:30:42.104Z,90.17
2018-06-25T22:33:13.371Z,89.31
2018-06-25T22:36:03.281Z,87.27
2018-06-25T22:38:37.021Z,88.29
2018-06-25T22:41:08.047Z,88.88
2018-06-25T22:43:44.077Z,88.49
2018-06-25T22:46:19.758Z,89.69
2018-06-25T22:48:50.731Z,91.10
2018-06-25T22:51:21.840Z,91.96
2018-06-25T22:53:52.624Z,89.07
2018-06-25T22:56:23.696Z,90.13
2018-06-25T22:59:01.532Z,91.41
2018-06-25T23:01:33.439Z,92.68
2018-06-25T23:04:06.172Z,92.30
2018-06-25T23:06:37.360Z,91.25
2018-06-25T23:09:16.724Z,90.20
2018-06-25T23:11:47.558Z,89.03
2018-06-25T23:14:18.737Z,88.07
2018-06-25T23:22:26.426Z,88.64
2018-06-25T23:24:56.534Z,88.51
2018-06-25T23:27:26.537Z,90.14
2018-06-25T23:29:56.397Z,90.35
2018-06-25T23:32:26.413Z,89.60
2018-06-25T23:34:56.382Z,89.54
2018-06-25T23:37:47.261Z,90.30
2018-06-25T23:40:20.897Z,89.48
2018-06-25T23:42:51.107Z,90.09
2018-06-25T23:45:21.305Z,89.81
2018-06-25T23:47:51.457Z,89.91
2018-06-25T23:50:22.603Z,90.29
2018-06-25T23:52:53.059Z,89.22
2018-06-25T23:55:22.958Z,88.62
2018-06-25T23:57:53.156Z,90.04
